sensor_id;sensor_type;location;lat;lon;timestamp;pressure;altitude;pressure_sealevel;temperature;humidity
36788;BME280;22738;45.560;9.434;2022-12-19T00:05:03;101661.47;;;5.51;100.00
36788;BME280;22738;45.560;9.434;2022-12-19T00:11:46;101663.16;;;5.52;100.00
36788;BME280;22738;45.560;9.434;2022-12-19T00:18:29;101659.75;;;5.50;100.00
36788;BME280;22738;45.560;9.434;2022-12-19T00:25:10;101656.34;;;5.51;100.00
36788;BME280;22738;45.560;9.434;2022-12-19T00:31:51;101661.53;;;5.47;100.00
36788;BME280;22738;45.560;9.434;2022-12-19T00:38:33;101663.25;;;5.46;100.00
36788;BME280;22738;45.560;9.434;2022-12-19T00:45:15;101647.78;;;5.49;100.00
36788;BME280;22738;45.560;9.434;2022-12-19T00:51:56;101656.47;;;5.42;100.00
36788;BME280;22738;45.560;9.434;2022-12-19T00:58:39;101660.84;;;5.36;100.00
36788;BME280;22738;45.560;9.434;2022-12-19T01:05:21;101652.06;;;5.50;100.00
36788;BME280;22738;45.560;9.434;2022-12-19T01:12:04;101674.41;;;5.47;100.00
36788;BME280;22738;45.560;9.434;2022-12-19T01:19:06;101671.94;;;5.36;100.00
36788;BME280;22738;45.560;9.434;2022-12-19T01:25:51;101673.75;;;5.31;100.00
36788;BME280;22738;45.560;9.434;2022-12-19T01:32:34;101666.88;;;5.33;100.00
36788;BME280;22738;45.560;9.434;2022-12-19T01:39:16;101664.13;;;5.45;100.00
36788;BME280;22738;45.560;9.434;2022-12-19T01:46:02;101654.75;;;5.43;100.00
36788;BME280;22738;45.560;9.434;2022-12-19T01:52:44;101642.78;;;5.40;100.00
36788;BME280;22738;45.560;9.434;2022-12-19T01:59:30;101642.13;;;5.25;100.00
36788;BME280;22738;45.560;9.434;2022-12-19T02:06:15;101641.31;;;5.21;100.00
36788;BME280;22738;45.560;9.434;2022-12-19T02:12:56;101654.06;;;5.29;100.00
36788;BME280;22738;45.560;9.434;2022-12-19T02:26:55;101656.91;;;5.07;100.00
36788;BME280;22738;45.560;9.434;2022-12-19T02:33:53;101658.66;;;5.04;100.00
36788;BME280;22738;45.560;9.434;2022-12-19T02:41:14;101654.34;;;5.07;100.00
36788;BME280;22738;45.560;9.434;2022-12-19T02:47:47;101654.34;;;5.04;100.00
36788;BME280;22738;45.560;9.434;2022-12-19T02:54:29;101658.66;;;5.04;100.00
36788;BME280;22738;45.560;9.434;2022-12-19T03:15:02;101666.63;;;4.80;100.00
36788;BME280;22738;45.560;9.434;2022-12-19T03:21:48;101653.78;;;4.80;100.00
36788;BME280;22738;45.560;9.434;2022-12-19T03:28:41;101638.47;;;4.71;100.00
36788;BME280;22738;45.560;9.434;2022-12-19T03:35:28;101640.28;;;4.63;100.00
36788;BME280;22738;45.560;9.434;2022-12-19T03:42:11;101647.31;;;4.47;100.00
36788;BME280;22738;45.560;9.434;2022-12-19T03:49:12;101648.13;;;4.48;100.00
36788;BME280;22738;45.560;9.434;2022-12-19T03:55:59;101650.66;;;4.54;100.00
36788;BME280;22738;45.560;9.434;2022-12-19T04:02:48;101626.63;;;4.61;100.00
36788;BME280;22738;45.560;9.434;2022-12-19T04:09:31;101623.16;;;4.65;100.00
36788;BME280;22738;45.560;9.434;2022-12-19T04:16:31;101637.75;;;4.60;100.00
36788;BME280;22738;45.560;9.434;2022-12-19T04:23:22;101652.25;;;4.64;100.00
36788;BME280;22738;45.560;9.434;2022-12-19T04:30:07;101655.69;;;4.63;100.00
36788;BME280;22738;45.560;9.434;2022-12-19T04:36:50;101659.09;;;4.65;100.00
36788;BME280;22738;45.560;9.434;2022-12-19T04:43:32;101639.41;;;4.64;100.00
36788;BME280;22738;45.560;9.434;2022-12-19T04:50:13;101633.44;;;4.62;100.00
36788;BME280;22738;45.560;9.434;2022-12-19T04:56:54;101635.09;;;4.69;100.00
36788;BME280;22738;45.560;9.434;2022-12-19T05:03:35;101635.09;;;4.66;100.00
36788;BME280;22738;45.560;9.434;2022-12-19T05:10:16;101652.31;;;4.61;100.00
36788;BME280;22738;45.560;9.434;2022-12-19T05:16:58;101658.38;;;4.54;100.00
36788;BME280;22738;45.560;9.434;2022-12-19T05:23:39;101659.22;;;4.53;100.00
36788;BME280;22738;45.560;9.434;2022-12-19T05:30:20;101649.81;;;4.53;100.00
36788;BME280;22738;45.560;9.434;2022-12-19T05:37:03;101647.19;;;4.58;100.00
36788;BME280;22738;45.560;9.434;2022-12-19T05:43:47;101644.69;;;4.52;100.00
36788;BME280;22738;45.560;9.434;2022-12-19T05:50:29;101640.38;;;4.54;100.00
36788;BME280;22738;45.560;9.434;2022-12-19T05:57:10;101646.44;;;4.50;100.00
36788;BME280;22738;45.560;9.434;2022-12-19T06:03:51;101641.28;;;4.48;100.00
36788;BME280;22738;45.560;9.434;2022-12-19T06:10:33;101637.00;;;4.49;100.00
36788;BME280;22738;45.560;9.434;2022-12-19T06:17:14;101642.13;;;4.52;100.00
36788;BME280;22738;45.560;9.434;2022-12-19T06:23:55;101648.13;;;4.51;100.00
36788;BME280;22738;45.560;9.434;2022-12-19T06:30:36;101653.22;;;4.54;100.00
36788;BME280;22738;45.560;9.434;2022-12-19T06:37:18;101650.66;;;4.54;100.00
36788;BME280;22738;45.560;9.434;2022-12-19T06:44:00;101645.41;;;4.61;100.00
36788;BME280;22738;45.560;9.434;2022-12-19T06:50:42;101639.34;;;4.68;100.00
36788;BME280;22738;45.560;9.434;2022-12-19T06:57:23;101649.59;;;4.74;100.00
36788;BME280;22738;45.560;9.434;2022-12-19T07:04:05;101644.44;;;4.76;100.00
36788;BME280;22738;45.560;9.434;2022-12-19T07:10:48;101643.56;;;4.77;100.00
36788;BME280;22738;45.560;9.434;2022-12-19T07:17:29;101655.50;;;4.81;100.00
36788;BME280;22738;45.560;9.434;2022-12-19T07:24:12;101651.09;;;4.92;100.00
36788;BME280;22738;45.560;9.434;2022-12-19T07:30:54;101643.31;;;4.98;100.00
36788;BME280;22738;45.560;9.434;2022-12-19T07:37:35;101653.56;;;5.01;100.00
36788;BME280;22738;45.560;9.434;2022-12-19T07:44:17;101662.00;;;5.11;100.00
36788;BME280;22738;45.560;9.434;2022-12-19T07:50:59;101672.19;;;5.18;100.00
36788;BME280;22738;45.560;9.434;2022-12-19T07:57:40;101668.59;;;5.31;100.00
36788;BME280;22738;45.560;9.434;2022-12-19T08:04:21;101666.91;;;5.27;100.00
36788;BME280;22738;45.560;9.434;2022-12-19T08:11:13;101672.78;;;5.40;100.00
36788;BME280;22738;45.560;9.434;2022-12-19T08:17:56;101678.66;;;5.48;100.00
36788;BME280;22738;45.560;9.434;2022-12-19T08:24:38;101686.19;;;5.61;100.00
36788;BME280;22738;45.560;9.434;2022-12-19T08:31:20;101672.44;;;5.65;100.00
36788;BME280;22738;45.560;9.434;2022-12-19T08:38:07;101669.72;;;5.74;100.00
36788;BME280;22738;45.560;9.434;2022-12-19T08:44:49;101665.34;;;5.79;100.00
36788;BME280;22738;45.560;9.434;2022-12-19T08:51:30;101661.88;;;5.84;100.00
36788;BME280;22738;45.560;9.434;2022-12-19T08:58:13;101673.84;;;5.86;100.00
36788;BME280;22738;45.560;9.434;2022-12-19T09:04:55;101671.13;;;5.97;100.00
36788;BME280;22738;45.560;9.434;2022-12-19T09:11:36;101665.84;;;6.06;100.00
36788;BME280;22738;45.560;9.434;2022-12-19T09:18:18;101665.69;;;6.15;100.00
36788;BME280;22738;45.560;9.434;2022-12-19T09:25:01;101673.50;;;6.09;100.00
36788;BME280;22738;45.560;9.434;2022-12-19T09:32:09;101674.34;;;6.11;100.00
36788;BME280;22738;45.560;9.434;2022-12-19T09:38:56;101691.66;;;6.00;100.00
36788;BME280;22738;45.560;9.434;2022-12-19T09:45:52;101669.09;;;6.17;100.00
36788;BME280;22738;45.560;9.434;2022-12-19T09:52:42;101673.09;;;6.33;100.00
36788;BME280;22738;45.560;9.434;2022-12-19T09:59:43;101671.91;;;6.52;100.00
36788;BME280;22738;45.560;9.434;2022-12-19T10:06:28;101663.25;;;6.56;100.00
36788;BME280;22738;45.560;9.434;2022-12-19T10:20:27;101644.53;;;6.92;100.00
36788;BME280;22738;45.560;9.434;2022-12-19T10:27:43;101656.72;;;7.26;100.00
36788;BME280;22738;45.560;9.434;2022-12-19T10:34:39;101640.72;;;7.50;100.00
36788;BME280;22738;45.560;9.434;2022-12-19T10:41:24;101627.34;;;7.33;100.00
36788;BME280;22738;45.560;9.434;2022-12-19T10:48:10;101637.13;;;7.17;100.00
36788;BME280;22738;45.560;9.434;2022-12-19T10:54:55;101623.09;;;7.30;100.00
36788;BME280;22738;45.560;9.434;2022-12-19T11:01:39;101607.47;;;7.38;100.00
36788;BME280;22738;45.560;9.434;2022-12-19T11:08:25;101597.81;;;7.46;100.00
36788;BME280;22738;45.560;9.434;2022-12-19T11:21:56;101585.66;;;7.51;100.00
36788;BME280;22738;45.560;9.434;2022-12-19T11:28:38;101575.94;;;7.62;100.00
36788;BME280;22738;45.560;9.434;2022-12-19T11:35:22;101575.41;;;7.48;100.00
36788;BME280;22738;45.560;9.434;2022-12-19T11:42:28;101560.97;;;7.76;100.00
36788;BME280;22738;45.560;9.434;2022-12-19T11:49:43;101557.09;;;7.58;100.00
36788;BME280;22738;45.560;9.434;2022-12-19T11:56:27;101547.88;;;7.83;100.00
36788;BME280;22738;45.560;9.434;2022-12-19T12:04:03;101546.09;;;8.19;100.00
36788;BME280;22738;45.560;9.434;2022-12-19T12:10:22;101536.59;;;7.86;100.00
36788;BME280;22738;45.560;9.434;2022-12-19T12:17:21;101534.19;;;7.80;100.00
36788;BME280;22738;45.560;9.434;2022-12-19T12:31:45;101508.72;;;8.00;100.00
36788;BME280;22738;45.560;9.434;2022-12-19T12:45:21;101508.72;;;8.00;100.00
36788;BME280;22738;45.560;9.434;2022-12-19T12:52:05;101504.94;;;7.81;100.00
36788;BME280;22738;45.560;9.434;2022-12-19T13:05:40;101496.13;;;7.88;100.00
36788;BME280;22738;45.560;9.434;2022-12-19T13:12:31;101490.31;;;7.80;100.00
36788;BME280;22738;45.560;9.434;2022-12-19T13:19:33;101473.16;;;7.79;100.00
36788;BME280;22738;45.560;9.434;2022-12-19T13:26:42;101475.72;;;7.79;100.00
36788;BME280;22738;45.560;9.434;2022-12-19T13:33:43;101475.72;;;7.79;100.00
36788;BME280;22738;45.560;9.434;2022-12-19T13:47:28;101482.97;;;7.63;100.00
36788;BME280;22738;45.560;9.434;2022-12-19T13:54:50;101464.22;;;7.58;100.00
36788;BME280;22738;45.560;9.434;2022-12-19T14:01:34;101479.94;;;7.48;100.00
36788;BME280;22738;45.560;9.434;2022-12-19T14:08:20;101479.13;;;7.46;100.00
36788;BME280;22738;45.560;9.434;2022-12-19T14:15:23;101477.53;;;7.42;100.00
36788;BME280;22738;45.560;9.434;2022-12-19T14:22:28;101485.25;;;7.42;100.00
36788;BME280;22738;45.560;9.434;2022-12-19T14:29:21;101475.81;;;7.41;100.00
36788;BME280;22738;45.560;9.434;2022-12-19T14:36:04;101475.97;;;7.35;100.00
36788;BME280;22738;45.560;9.434;2022-12-19T14:42:46;101475.97;;;7.35;100.00
36788;BME280;22738;45.560;9.434;2022-12-19T14:49:46;101474.22;;;7.37;100.00
36788;BME280;22738;45.560;9.434;2022-12-19T14:56:32;101475.91;;;7.38;100.00
36788;BME280;22738;45.560;9.434;2022-12-19T15:03:17;101469.84;;;7.40;100.00
36788;BME280;22738;45.560;9.434;2022-12-19T15:10:00;101470.66;;;7.41;100.00
36788;BME280;22738;45.560;9.434;2022-12-19T15:16:42;101455.22;;;7.39;100.00
36788;BME280;22738;45.560;9.434;2022-12-19T15:23:26;101444.22;;;7.33;100.00
36788;BME280;22738;45.560;9.434;2022-12-19T15:30:16;101447.78;;;7.27;100.00
36788;BME280;22738;45.560;9.434;2022-12-19T15:36:57;101441.00;;;7.25;100.00
36788;BME280;22738;45.560;9.434;2022-12-19T15:43:39;101446.31;;;7.17;100.00
36788;BME280;22738;45.560;9.434;2022-12-19T15:50:23;101450.69;;;7.13;100.00
36788;BME280;22738;45.560;9.434;2022-12-19T15:57:09;101455.97;;;7.09;100.00
36788;BME280;22738;45.560;9.434;2022-12-19T16:03:59;101456.97;;;7.03;100.00
36788;BME280;22738;45.560;9.434;2022-12-19T16:10:41;101461.16;;;7.07;100.00
36788;BME280;22738;45.560;9.434;2022-12-19T16:17:26;101460.94;;;7.16;100.00
36788;BME280;22738;45.560;9.434;2022-12-19T16:24:08;101466.88;;;7.20;100.00
36788;BME280;22738;45.560;9.434;2022-12-19T16:30:50;101460.06;;;7.17;100.00
36788;BME280;22738;45.560;9.434;2022-12-19T16:37:31;101467.81;;;7.17;100.00
36788;BME280;22738;45.560;9.434;2022-12-19T16:44:20;101464.41;;;7.15;100.00
36788;BME280;22738;45.560;9.434;2022-12-19T16:51:02;101455.84;;;7.13;100.00
36788;BME280;22738;45.560;9.434;2022-12-19T16:57:44;101459.31;;;7.12;100.00
36788;BME280;22738;45.560;9.434;2022-12-19T17:04:27;101459.38;;;7.09;100.00
36788;BME280;22738;45.560;9.434;2022-12-19T17:11:17;101468.84;;;7.09;100.00
36788;BME280;22738;45.560;9.434;2022-12-19T17:18:11;101474.00;;;7.09;100.00
36788;BME280;22738;45.560;9.434;2022-12-19T17:24:53;101481.78;;;7.07;100.00
36788;BME280;22738;45.560;9.434;2022-12-19T17:31:35;101484.44;;;7.04;100.00
36788;BME280;22738;45.560;9.434;2022-12-19T17:38:19;101480.16;;;7.03;100.00
36788;BME280;22738;45.560;9.434;2022-12-19T17:45:00;101483.72;;;6.99;100.00
36788;BME280;22738;45.560;9.434;2022-12-19T17:51:44;101483.72;;;6.98;100.00
36788;BME280;22738;45.560;9.434;2022-12-19T17:58:26;101494.13;;;6.93;100.00
36788;BME280;22738;45.560;9.434;2022-12-19T18:05:14;101494.13;;;6.93;100.00
36788;BME280;22738;45.560;9.434;2022-12-19T18:11:59;101502.00;;;6.87;100.00
36788;BME280;22738;45.560;9.434;2022-12-19T18:18:40;101493.53;;;6.82;100.00
36788;BME280;22738;45.560;9.434;2022-12-19T18:25:23;101496.06;;;6.84;100.00
36788;BME280;22738;45.560;9.434;2022-12-19T18:32:04;101489.19;;;6.84;100.00
36788;BME280;22738;45.560;9.434;2022-12-19T18:38:46;101475.50;;;6.82;100.00
36788;BME280;22738;45.560;9.434;2022-12-19T18:45:32;101476.28;;;6.84;100.00
36788;BME280;22738;45.560;9.434;2022-12-19T18:52:13;101480.59;;;6.85;100.00
36788;BME280;22738;45.560;9.434;2022-12-19T18:58:56;101484.03;;;6.84;100.00
36788;BME280;22738;45.560;9.434;2022-12-19T19:05:39;101478.03;;;6.84;100.00
36788;BME280;22738;45.560;9.434;2022-12-19T19:12:20;101487.41;;;6.86;100.00
36788;BME280;22738;45.560;9.434;2022-12-19T19:19:03;101488.28;;;6.87;100.00
36788;BME280;22738;45.560;9.434;2022-12-19T19:25:45;101489.28;;;6.81;100.00
36788;BME280;22738;45.560;9.434;2022-12-19T19:32:26;101480.63;;;6.82;100.00
36788;BME280;22738;45.560;9.434;2022-12-19T19:39:08;101480.63;;;6.82;100.00
36788;BME280;22738;45.560;9.434;2022-12-19T19:45:50;101478.03;;;6.84;100.00
36788;BME280;22738;45.560;9.434;2022-12-19T19:52:32;101464.31;;;6.83;100.00
36788;BME280;22738;45.560;9.434;2022-12-19T19:59:13;101464.31;;;6.83;100.00
36788;BME280;22738;45.560;9.434;2022-12-19T20:06:02;101461.72;;;6.83;100.00
36788;BME280;22738;45.560;9.434;2022-12-19T20:12:43;101466.78;;;6.86;100.00
36788;BME280;22738;45.560;9.434;2022-12-19T20:19:25;101460.03;;;6.82;100.00
36788;BME280;22738;45.560;9.434;2022-12-19T20:26:06;101472.09;;;6.80;100.00
36788;BME280;22738;45.560;9.434;2022-12-19T20:32:50;101465.31;;;6.76;100.00
36788;BME280;22738;45.560;9.434;2022-12-19T20:39:30;101468.72;;;6.78;100.00
36788;BME280;22738;45.560;9.434;2022-12-19T20:46:16;101472.13;;;6.79;100.00
36788;BME280;22738;45.560;9.434;2022-12-19T20:52:57;101459.22;;;6.80;100.00
36788;BME280;22738;45.560;9.434;2022-12-19T20:59:38;101453.25;;;6.78;100.00
36788;BME280;22738;45.560;9.434;2022-12-19T21:06:20;101453.19;;;6.81;100.00
36788;BME280;22738;45.560;9.434;2022-12-19T21:13:02;101456.63;;;6.80;100.00
36788;BME280;22738;45.560;9.434;2022-12-19T21:19:43;101453.31;;;6.75;100.00
36788;BME280;22738;45.560;9.434;2022-12-19T21:26:24;101447.19;;;6.79;100.00
36788;BME280;22738;45.560;9.434;2022-12-19T21:33:06;101442.94;;;6.78;100.00
36788;BME280;22738;45.560;9.434;2022-12-19T21:39:48;101430.94;;;6.77;100.00
36788;BME280;22738;45.560;9.434;2022-12-19T21:46:30;101434.41;;;6.76;100.00
36788;BME280;22738;45.560;9.434;2022-12-19T21:53:14;101424.94;;;6.77;100.00
36788;BME280;22738;45.560;9.434;2022-12-19T21:59:55;101422.38;;;6.75;100.00
36788;BME280;22738;45.560;9.434;2022-12-19T22:06:37;101425.72;;;6.80;100.00
36788;BME280;22738;45.560;9.434;2022-12-19T22:13:18;101424.09;;;6.76;100.00
36788;BME280;22738;45.560;9.434;2022-12-19T22:19:59;101418.94;;;6.76;100.00
36788;BME280;22738;45.560;9.434;2022-12-19T22:26:42;101412.78;;;6.82;100.00
36788;BME280;22738;45.560;9.434;2022-12-19T22:33:23;101416.16;;;6.84;100.00
36788;BME280;22738;45.560;9.434;2022-12-19T22:40:05;101412.06;;;6.75;100.00
36788;BME280;22738;45.560;9.434;2022-12-19T22:46:47;101417.16;;;6.78;100.00
36788;BME280;22738;45.560;9.434;2022-12-19T22:53:28;101405.97;;;6.79;100.00
36788;BME280;22738;45.560;9.434;2022-12-19T23:00:12;101395.75;;;6.75;100.00
36788;BME280;22738;45.560;9.434;2022-12-19T23:06:53;101400.06;;;6.76;100.00
36788;BME280;22738;45.560;9.434;2022-12-19T23:13:34;101398.38;;;6.73;100.00
36788;BME280;22738;45.560;9.434;2022-12-19T23:20:15;101386.41;;;6.72;100.00
36788;BME280;22738;45.560;9.434;2022-12-19T23:26:56;101397.41;;;6.79;100.00
36788;BME280;22738;45.560;9.434;2022-12-19T23:33:38;101395.72;;;6.78;100.00
36788;BME280;22738;45.560;9.434;2022-12-19T23:40:19;101401.66;;;6.81;100.00
36788;BME280;22738;45.560;9.434;2022-12-19T23:47:00;101392.22;;;6.80;100.00
36788;BME280;22738;45.560;9.434;2022-12-19T23:53:43;101381.03;;;6.81;100.00
